52.0°F
Current conditions from King Hill
Updated every 5 minutes
 
  Saturday September 20, 2014

Station Historical Data
Daily Summary for July 6, 2012 Units:  Both    English   Metric
« Previous Day
Next Day »
Daily Weekly Monthly Yearly Custom
  High: Low: Average:
Temperature: 84.7 °F /  29.3 °C 55.6 °F /  13.1 °C 70.7 °F /  21.5 °C
Dew Point: 69.8 °F /  21 °C 54.5 °F /  12.5 °C 63.1 °F /  17.3 °C
Humidity: 97% 55% 79%
Wind Speed: 6.0mph /  9.7km/h - 1.6mph /  2.6km/h
Wind Gust: 13.0mph /  20.9km/h - -
Wind- - SW
Pressure: 29.90 in /  1012.4 hPa 29.75 in /  1007.3 hPa -
Precipitation: 0.00 in /  0 mm    
Historical Graphs
 
 
Tabular Data for July 6, 2012
Time Temperature Dew Point Pressure Wind Wind Speed Wind Gust Humidity Daily Rainfall
00:04 58.0 °F /  14.4 °C 56.3 °F /  13.5 °C 29.86in /  1011.1hPa Calm     94% 0.00in /  0mm
00:09 58.2 °F /  14.6 °C 56.8 °F /  13.8 °C 29.86in /  1011.1hPa Calm     95% 0.00in /  0mm
00:19 58.0 °F /  14.4 °C 56.6 °F /  13.7 °C 29.86in /  1011.1hPa Calm     95% 0.00in /  0mm
00:24 57.9 °F /  14.4 °C 56.5 °F /  13.6 °C 29.86in /  1011.1hPa Calm     95% 0.00in /  0mm
00:29 57.8 °F /  14.3 °C 56.4 °F /  13.6 °C 29.86in /  1011.1hPa Calm     95% 0.00in /  0mm
00:34 57.6 °F /  14.2 °C 56.2 °F /  13.4 °C 29.86in /  1011.1hPa Calm     95% 0.00in /  0mm
00:39 57.5 °F /  14.2 °C 56.1 °F /  13.4 °C 29.86in /  1011.1hPa Calm     95% 0.00in /  0mm
00:44 57.5 °F /  14.2 °C 56.1 °F /  13.4 °C 29.86in /  1011.1hPa Calm     95% 0.00in /  0mm
00:54 57.3 °F /  14.1 °C 55.9 °F /  13.3 °C 29.86in /  1011.1hPa Calm     95% 0.00in /  0mm
00:59 57.2 °F /  14 °C 55.8 °F /  13.2 °C 29.86in /  1011.1hPa Calm     95% 0.00in /  0mm
01:04 57.1 °F /  13.9 °C 55.7 °F /  13.2 °C 29.86in /  1011.1hPa Calm     95% 0.00in /  0mm
01:09 56.9 °F /  13.8 °C 55.5 °F /  13.1 °C 29.86in /  1011.1hPa Calm     95% 0.00in /  0mm
01:14 57.0 °F /  13.9 °C 55.6 °F /  13.1 °C 29.86in /  1011.1hPa Calm     95% 0.00in /  0mm
01:19 57.2 °F /  14 °C 55.8 °F /  13.2 °C 29.86in /  1011.1hPa Calm     95% 0.00in /  0mm
01:24 57.3 °F /  14.1 °C 55.9 °F /  13.3 °C 29.86in /  1011.1hPa Calm     95% 0.00in /  0mm
01:29 57.1 °F /  13.9 °C 55.7 °F /  13.2 °C 29.86in /  1011.1hPa Calm     95% 0.00in /  0mm
01:34 57.2 °F /  14 °C 55.8 °F /  13.2 °C 29.86in /  1011.1hPa Calm     95% 0.00in /  0mm
01:39 57.2 °F /  14 °C 55.8 °F /  13.2 °C 29.87in /  1011.4hPa Calm     95% 0.00in /  0mm
01:44 57.2 °F /  14 °C 55.8 °F /  13.2 °C 29.86in /  1011.1hPa Calm     95% 0.00in /  0mm
01:49 57.2 °F /  14 °C 55.8 °F /  13.2 °C 29.86in /  1011.1hPa Calm     95% 0.00in /  0mm
01:54 57.2 °F /  14 °C 56.1 °F /  13.4 °C 29.86in /  1011.1hPa Calm     96% 0.00in /  0mm
01:59 57.2 °F /  14 °C 56.1 °F /  13.4 °C 29.86in /  1011.1hPa Calm     96% 0.00in /  0mm
02:04 57.1 °F /  13.9 °C 56.0 °F /  13.3 °C 29.86in /  1011.1hPa Calm     96% 0.00in /  0mm
02:09 57.2 °F /  14 °C 56.1 °F /  13.4 °C 29.86in /  1011.1hPa Calm     96% 0.00in /  0mm
02:14 57.4 °F /  14.1 °C 56.3 °F /  13.5 °C 29.86in /  1011.1hPa Calm     96% 0.00in /  0mm
02:19 57.5 °F /  14.2 °C 56.4 °F /  13.6 °C 29.86in /  1011.1hPa Calm     96% 0.00in /  0mm
02:24 57.3 °F /  14.1 °C 56.2 °F /  13.4 °C 29.86in /  1011.1hPa Calm     96% 0.00in /  0mm
02:29 57.2 °F /  14 °C 56.1 °F /  13.4 °C 29.86in /  1011.1hPa Calm     96% 0.00in /  0mm
02:34 57.0 °F /  13.9 °C 55.9 °F /  13.3 °C 29.86in /  1011.1hPa Calm     96% 0.00in /  0mm
02:39 56.9 °F /  13.8 °C 55.8 °F /  13.2 °C 29.86in /  1011.1hPa Calm     96% 0.00in /  0mm
02:44 57.0 °F /  13.9 °C 55.9 °F /  13.3 °C 29.86in /  1011.1hPa Calm     96% 0.00in /  0mm
02:49 56.9 °F /  13.8 °C 55.8 °F /  13.2 °C 29.86in /  1011.1hPa Calm     96% 0.00in /  0mm
02:54 56.9 °F /  13.8 °C 55.8 °F /  13.2 °C 29.86in /  1011.1hPa Calm     96% 0.00in /  0mm
02:59 57.0 °F /  13.9 °C 55.9 °F /  13.3 °C 29.87in /  1011.4hPa Calm     96% 0.00in /  0mm
03:04 57.1 °F /  13.9 °C 56.0 °F /  13.3 °C 29.86in /  1011.1hPa Calm     96% 0.00in /  0mm
03:09 57.0 °F /  13.9 °C 55.9 °F /  13.3 °C 29.86in /  1011.1hPa Calm     96% 0.00in /  0mm
03:14 57.1 °F /  13.9 °C 56.0 °F /  13.3 °C 29.86in /  1011.1hPa Calm     96% 0.00in /  0mm
03:19 57.1 °F /  13.9 °C 56.0 °F /  13.3 °C 29.86in /  1011.1hPa Calm     96% 0.00in /  0mm
03:24 57.0 °F /  13.9 °C 55.9 °F /  13.3 °C 29.86in /  1011.1hPa Calm     96% 0.00in /  0mm
03:29 56.9 °F /  13.8 °C 55.8 °F /  13.2 °C 29.86in /  1011.1hPa Calm     96% 0.00in /  0mm
03:34 56.8 °F /  13.8 °C 55.7 °F /  13.2 °C 29.86in /  1011.1hPa Calm     96% 0.00in /  0mm
03:39 56.5 °F /  13.6 °C 55.4 °F /  13 °C 29.86in /  1011.1hPa Calm     96% 0.00in /  0mm
03:44 56.4 °F /  13.6 °C 55.3 °F /  12.9 °C 29.86in /  1011.1hPa Calm     96% 0.00in /  0mm
03:49 56.2 °F /  13.4 °C 55.1 °F /  12.8 °C 29.86in /  1011.1hPa Calm     96% 0.00in /  0mm
03:54 56.1 °F /  13.4 °C 55.0 °F /  12.8 °C 29.86in /  1011.1hPa Calm     96% 0.00in /  0mm
03:59 56.1 °F /  13.4 °C 55.0 °F /  12.8 °C 29.86in /  1011.1hPa Calm     96% 0.00in /  0mm
04:04 56.0 °F /  13.3 °C 54.9 °F /  12.7 °C 29.86in /  1011.1hPa Calm     96% 0.00in /  0mm
04:09 56.0 °F /  13.3 °C 54.9 °F /  12.7 °C 29.86in /  1011.1hPa Calm     96% 0.00in /  0mm
04:14 56.0 °F /  13.3 °C 54.9 °F /  12.7 °C 29.86in /  1011.1hPa Calm     96% 0.00in /  0mm
04:19 55.9 °F /  13.3 °C 54.8 °F /  12.7 °C 29.87in /  1011.4hPa Calm     96% 0.00in /  0mm
04:24 55.8 °F /  13.2 °C 54.7 °F /  12.6 °C 29.87in /  1011.4hPa Calm     96% 0.00in /  0mm
04:29 55.8 °F /  13.2 °C 54.7 °F /  12.6 °C 29.87in /  1011.4hPa Calm     96% 0.00in /  0mm
04:34 55.6 °F /  13.1 °C 54.5 °F /  12.5 °C 29.87in /  1011.4hPa Calm     96% 0.00in /  0mm
04:39 55.6 °F /  13.1 °C 54.5 °F /  12.5 °C 29.87in /  1011.4hPa Calm     96% 0.00in /  0mm
04:44 55.8 °F /  13.2 °C 54.7 °F /  12.6 °C 29.87in /  1011.4hPa Calm     96% 0.00in /  0mm
04:49 55.8 °F /  13.2 °C 54.7 °F /  12.6 °C 29.87in /  1011.4hPa Calm     96% 0.00in /  0mm
04:54 55.7 °F /  13.2 °C 54.6 °F /  12.6 °C 29.88in /  1011.7hPa Calm     96% 0.00in /  0mm
04:59 55.7 °F /  13.2 °C 54.6 °F /  12.6 °C 29.88in /  1011.7hPa Calm     96% 0.00in /  0mm
05:04 55.7 °F /  13.2 °C 54.6 °F /  12.6 °C 29.88in /  1011.7hPa Calm     96% 0.00in /  0mm
05:09 55.8 °F /  13.2 °C 54.7 °F /  12.6 °C 29.88in /  1011.7hPa Calm     96% 0.00in /  0mm
05:14 55.6 °F /  13.1 °C 54.5 °F /  12.5 °C 29.88in /  1011.7hPa Calm     96% 0.00in /  0mm
05:19 55.7 °F /  13.2 °C 54.6 °F /  12.6 °C 29.88in /  1011.7hPa Calm     96% 0.00in /  0mm
05:24 55.7 °F /  13.2 °C 54.6 °F /  12.6 °C 29.88in /  1011.7hPa Calm     96% 0.00in /  0mm
05:29 55.6 °F /  13.1 °C 54.5 °F /  12.5 °C 29.88in /  1011.7hPa Calm     96% 0.00in /  0mm
05:34 55.6 °F /  13.1 °C 54.5 °F /  12.5 °C 29.88in /  1011.7hPa Calm     96% 0.00in /  0mm
05:39 55.9 °F /  13.3 °C 54.8 °F /  12.7 °C 29.88in /  1011.7hPa Calm     96% 0.00in /  0mm
05:44 56.2 °F /  13.4 °C 55.1 °F /  12.8 °C 29.87in /  1011.4hPa Calm     96% 0.00in /  0mm
05:49 56.4 °F /  13.6 °C 55.3 °F /  12.9 °C 29.87in /  1011.4hPa Calm     96% 0.00in /  0mm
05:54 56.6 °F /  13.7 °C 55.5 °F /  13.1 °C 29.88in /  1011.7hPa Calm     96% 0.00in /  0mm
05:59 56.6 °F /  13.7 °C 55.5 °F /  13.1 °C 29.87in /  1011.4hPa Calm     96% 0.00in /  0mm
06:09 57.2 °F /  14 °C 56.1 °F /  13.4 °C 29.88in /  1011.7hPa Calm     96% 0.00in /  0mm
06:14 57.3 °F /  14.1 °C 56.2 °F /  13.4 °C 29.88in /  1011.7hPa Calm     96% 0.00in /  0mm
06:19 57.3 °F /  14.1 °C 56.2 °F /  13.4 °C 29.88in /  1011.7hPa Calm     96% 0.00in /  0mm
06:29 57.7 °F /  14.3 °C 56.6 °F /  13.7 °C 29.88in /  1011.7hPa Calm     96% 0.00in /  0mm
06:34 57.9 °F /  14.4 °C 56.8 °F /  13.8 °C 29.88in /  1011.7hPa Calm     96% 0.00in /  0mm
06:39 58.2 °F /  14.6 °C 57.1 °F /  13.9 °C 29.89in /  1012.1hPa Calm     96% 0.00in /  0mm
06:44 58.8 °F /  14.9 °C 58.0 °F /  14.4 °C 29.89in /  1012.1hPa Calm     97% 0.00in /  0mm
06:49 59.2 °F /  15.1 °C 58.1 °F /  14.5 °C 29.89in /  1012.1hPa Calm     96% 0.00in /  0mm
06:54 59.6 °F /  15.3 °C 58.7 °F /  14.8 °C 29.89in /  1012.1hPa North 1.0mph /  1.6km/h 2.0mph /  3.2km/h 97% 0.00in /  0mm
06:59 60.1 °F /  15.6 °C 59.2 °F /  15.1 °C 29.88in /  1011.7hPa Calm   2.0mph /  3.2km/h 97% 0.00in /  0mm
07:04 60.6 °F /  15.9 °C 59.7 °F /  15.4 °C 29.89in /  1012.1hPa Calm     97% 0.00in /  0mm
07:09 60.9 °F /  16.1 °C 60.0 °F /  15.6 °C 29.88in /  1011.7hPa Calm     97% 0.00in /  0mm
07:14 61.3 °F /  16.3 °C 60.4 °F /  15.8 °C 29.89in /  1012.1hPa Calm     97% 0.00in /  0mm
07:19 61.6 °F /  16.4 °C 60.7 °F /  15.9 °C 29.89in /  1012.1hPa Calm   2.0mph /  3.2km/h 97% 0.00in /  0mm
07:24 62.3 °F /  16.8 °C 61.4 °F /  16.3 °C 29.88in /  1011.7hPa Calm   4.0mph /  6.4km/h 97% 0.00in /  0mm
07:29 62.9 °F /  17.2 °C 62.0 °F /  16.7 °C 29.89in /  1012.1hPa Calm   4.0mph /  6.4km/h 97% 0.00in /  0mm
07:34 63.4 °F /  17.4 °C 62.5 °F /  16.9 °C 29.89in /  1012.1hPa SSW 1.0mph /  1.6km/h 4.0mph /  6.4km/h 97% 0.00in /  0mm
07:39 63.3 °F /  17.4 °C 62.4 °F /  16.9 °C 29.89in /  1012.1hPa SW 1.0mph /  1.6km/h 5.0mph /  8km/h 97% 0.00in /  0mm
07:44 63.1 °F /  17.3 °C 62.2 °F /  16.8 °C 29.89in /  1012.1hPa Calm   5.0mph /  8km/h 97% 0.00in /  0mm
07:49 63.1 °F /  17.3 °C 62.2 °F /  16.8 °C 29.89in /  1012.1hPa Calm   5.0mph /  8km/h 97% 0.00in /  0mm
07:54 63.2 °F /  17.3 °C 62.3 °F /  16.8 °C 29.90in /  1012.4hPa Calm   2.0mph /  3.2km/h 97% 0.00in /  0mm
07:59 63.6 °F /  17.6 °C 62.7 °F /  17.1 °C 29.90in /  1012.4hPa Calm   1.0mph /  1.6km/h 97% 0.00in /  0mm
08:04 63.8 °F /  17.7 °C 62.9 °F /  17.2 °C 29.90in /  1012.4hPa Calm   1.0mph /  1.6km/h 97% 0.00in /  0mm
08:09 63.9 °F /  17.7 °C 63.0 °F /  17.2 °C 29.90in /  1012.4hPa SW 2.0mph /  3.2km/h 5.0mph /  8km/h 97% 0.00in /  0mm
08:14 64.5 °F /  18.1 °C 63.6 °F /  17.6 °C 29.90in /  1012.4hPa Calm   5.0mph /  8km/h 97% 0.00in /  0mm
08:19 64.7 °F /  18.2 °C 63.8 °F /  17.7 °C 29.89in /  1012.1hPa Calm   1.0mph /  1.6km/h 97% 0.00in /  0mm
08:24 65.2 °F /  18.4 °C 64.3 °F /  17.9 °C 29.89in /  1012.1hPa Calm   5.0mph /  8km/h 97% 0.00in /  0mm
08:29 65.6 °F /  18.7 °C 64.4 °F /  18 °C 29.89in /  1012.1hPa Calm   5.0mph /  8km/h 96% 0.00in /  0mm
08:34 66.0 °F /  18.9 °C 64.8 °F /  18.2 °C 29.89in /  1012.1hPa Calm   1.0mph /  1.6km/h 96% 0.00in /  0mm
08:39 66.1 °F /  18.9 °C 64.6 °F /  18.1 °C 29.89in /  1012.1hPa Calm     95% 0.00in /  0mm
08:44 66.9 °F /  19.4 °C 65.1 °F /  18.4 °C 29.88in /  1011.7hPa Calm     94% 0.00in /  0mm
08:49 67.6 °F /  19.8 °C 64.9 °F /  18.3 °C 29.88in /  1011.7hPa Calm   1.0mph /  1.6km/h 91% 0.00in /  0mm
08:54 68.0 °F /  20 °C 64.6 °F /  18.1 °C 29.89in /  1012.1hPa Calm   1.0mph /  1.6km/h 89% 0.00in /  0mm
08:59 68.8 °F /  20.4 °C 65.4 °F /  18.6 °C 29.88in /  1011.7hPa Calm     89% 0.00in /  0mm
09:04 69.7 °F /  20.9 °C 65.0 °F /  18.3 °C 29.88in /  1011.7hPa Calm     85% 0.00in /  0mm
09:09 70.2 °F /  21.2 °C 64.8 °F /  18.2 °C 29.88in /  1011.7hPa Calm     83% 0.00in /  0mm
09:14 70.2 °F /  21.2 °C 64.5 °F /  18.1 °C 29.88in /  1011.7hPa Calm   1.0mph /  1.6km/h 82% 0.00in /  0mm
09:19 70.2 °F /  21.2 °C 64.8 °F /  18.2 °C 29.88in /  1011.7hPa SW 1.0mph /  1.6km/h 3.0mph /  4.8km/h 83% 0.00in /  0mm
09:24 70.3 °F /  21.3 °C 64.5 °F /  18.1 °C 29.87in /  1011.4hPa Calm   3.0mph /  4.8km/h 82% 0.00in /  0mm
09:29 70.5 °F /  21.4 °C 64.7 °F /  18.2 °C 29.87in /  1011.4hPa Calm   1.0mph /  1.6km/h 82% 0.00in /  0mm
09:34 71.2 °F /  21.8 °C 65.1 °F /  18.4 °C 29.88in /  1011.7hPa Calm     81% 0.00in /  0mm
09:39 71.7 °F /  22.1 °C 65.2 °F /  18.4 °C 29.88in /  1011.7hPa Calm   6.0mph /  9.7km/h 80% 0.00in /  0mm
09:44 72.5 °F /  22.5 °C 65.3 °F /  18.5 °C 29.88in /  1011.7hPa Calm   6.0mph /  9.7km/h 78% 0.00in /  0mm
09:49 73.3 °F /  22.9 °C 65.7 °F /  18.7 °C 29.87in /  1011.4hPa Calm   6.0mph /  9.7km/h 77% 0.00in /  0mm
09:54 73.9 °F /  23.3 °C 65.5 °F /  18.6 °C 29.87in /  1011.4hPa South 1.0mph /  1.6km/h 6.0mph /  9.7km/h 75% 0.00in /  0mm
09:59 74.4 °F /  23.6 °C 65.6 °F /  18.7 °C 29.87in /  1011.4hPa Calm   8.0mph /  12.9km/h 74% 0.00in /  0mm
10:04 74.9 °F /  23.8 °C 64.9 °F /  18.3 °C 29.87in /  1011.4hPa SW 3.0mph /  4.8km/h 8.0mph /  12.9km/h 71% 0.00in /  0mm
10:09 75.2 °F /  24 °C 65.2 °F /  18.4 °C 29.87in /  1011.4hPa South 1.0mph /  1.6km/h 8.0mph /  12.9km/h 71% 0.00in /  0mm
10:14 75.4 °F /  24.1 °C 64.9 °F /  18.3 °C 29.87in /  1011.4hPa SW 1.0mph /  1.6km/h 8.0mph /  12.9km/h 70% 0.00in /  0mm
10:19 75.8 °F /  24.3 °C 66.1 °F /  18.9 °C 29.87in /  1011.4hPa SSW 1.0mph /  1.6km/h 9.0mph /  14.5km/h 72% 0.00in /  0mm
10:24 75.8 °F /  24.3 °C 64.9 °F /  18.3 °C 29.87in /  1011.4hPa South 4.0mph /  6.4km/h 9.0mph /  14.5km/h 69% 0.00in /  0mm
10:29 75.5 °F /  24.2 °C 64.6 °F /  18.1 °C 29.86in /  1011.1hPa SSW 2.0mph /  3.2km/h 7.0mph /  11.3km/h 69% 0.00in /  0mm
10:34 75.5 °F /  24.2 °C 66.2 °F /  19 °C 29.86in /  1011.1hPa SW 2.0mph /  3.2km/h 8.0mph /  12.9km/h 73% 0.00in /  0mm
10:39 75.9 °F /  24.4 °C 65.0 °F /  18.3 °C 29.86in /  1011.1hPa WSW 2.0mph /  3.2km/h 8.0mph /  12.9km/h 69% 0.00in /  0mm
10:44 76.0 °F /  24.4 °C 66.7 °F /  19.3 °C 29.86in /  1011.1hPa Calm   7.0mph /  11.3km/h 73% 0.00in /  0mm
10:49 76.2 °F /  24.6 °C 64.9 °F /  18.3 °C 29.86in /  1011.1hPa SSW 3.0mph /  4.8km/h 7.0mph /  11.3km/h 68% 0.00in /  0mm
10:54 76.6 °F /  24.8 °C 64.8 °F /  18.2 °C 29.86in /  1011.1hPa SW 2.0mph /  3.2km/h 7.0mph /  11.3km/h 67% 0.00in /  0mm
10:59 76.9 °F /  24.9 °C 66.4 °F /  19.1 °C 29.86in /  1011.1hPa South 1.0mph /  1.6km/h 7.0mph /  11.3km/h 70% 0.00in /  0mm
11:04 77.1 °F /  25.1 °C 64.9 °F /  18.3 °C 29.86in /  1011.1hPa SSW 1.0mph /  1.6km/h 8.0mph /  12.9km/h 66% 0.00in /  0mm
11:09 77.0 °F /  25 °C 63.5 °F /  17.5 °C 29.86in /  1011.1hPa South 1.0mph /  1.6km/h 8.0mph /  12.9km/h 63% 0.00in /  0mm
11:14 77.3 °F /  25.2 °C 64.2 °F /  17.9 °C 29.86in /  1011.1hPa SW 1.0mph /  1.6km/h 8.0mph /  12.9km/h 64% 0.00in /  0mm
11:19 77.5 °F /  25.3 °C 65.7 °F /  18.7 °C 29.86in /  1011.1hPa Calm   9.0mph /  14.5km/h 67% 0.00in /  0mm
11:24 77.6 °F /  25.3 °C 65.4 °F /  18.6 °C 29.86in /  1011.1hPa SW 1.0mph /  1.6km/h 9.0mph /  14.5km/h 66% 0.00in /  0mm
11:29 78.2 °F /  25.7 °C 67.6 °F /  19.8 °C 29.85in /  1010.7hPa Calm   7.0mph /  11.3km/h 70% 0.00in /  0mm
11:34 78.7 °F /  25.9 °C 66.4 °F /  19.1 °C 29.85in /  1010.7hPa SSE 2.0mph /  3.2km/h 8.0mph /  12.9km/h 66% 0.00in /  0mm
11:39 79.1 °F /  26.2 °C 66.3 °F /  19.1 °C 29.85in /  1010.7hPa SSW 1.0mph /  1.6km/h 8.0mph /  12.9km/h 65% 0.00in /  0mm
11:44 78.9 °F /  26.1 °C 65.3 °F /  18.5 °C 29.84in /  1010.4hPa SSW 3.0mph /  4.8km/h 10.0mph /  16.1km/h 63% 0.00in /  0mm
11:49 78.4 °F /  25.8 °C 63.9 °F /  17.7 °C 29.84in /  1010.4hPa SW 6.0mph /  9.7km/h 11.0mph /  17.7km/h 61% 0.00in /  0mm
11:54 78.3 °F /  25.7 °C 64.7 °F /  18.2 °C 29.84in /  1010.4hPa SW 1.0mph /  1.6km/h 11.0mph /  17.7km/h 63% 0.00in /  0mm
11:59 78.4 °F /  25.8 °C 65.7 °F /  18.7 °C 29.84in /  1010.4hPa WSW 1.0mph /  1.6km/h 8.0mph /  12.9km/h 65% 0.00in /  0mm
12:04 78.7 °F /  25.9 °C 66.0 °F /  18.9 °C 29.83in /  1010hPa SW 1.0mph /  1.6km/h 8.0mph /  12.9km/h 65% 0.00in /  0mm
12:09 79.1 °F /  26.2 °C 66.8 °F /  19.3 °C 29.83in /  1010hPa SSW 2.0mph /  3.2km/h 8.0mph /  12.9km/h 66% 0.00in /  0mm
12:14 79.3 °F /  26.3 °C 64.7 °F /  18.2 °C 29.83in /  1010hPa SW 3.0mph /  4.8km/h 10.0mph /  16.1km/h 61% 0.00in /  0mm
12:19 79.3 °F /  26.3 °C 64.7 °F /  18.2 °C 29.83in /  1010hPa SW 3.0mph /  4.8km/h 10.0mph /  16.1km/h 61% 0.00in /  0mm
12:24 79.2 °F /  26.2 °C 65.5 °F /  18.6 °C 29.83in /  1010hPa SSW 1.0mph /  1.6km/h 9.0mph /  14.5km/h 63% 0.00in /  0mm
12:29 80.0 °F /  26.7 °C 69.8 °F /  21 °C 29.84in /  1010.4hPa Calm   8.0mph /  12.9km/h 71% 0.00in /  0mm
12:34 80.1 °F /  26.7 °C 65.9 °F /  18.8 °C 29.83in /  1010hPa SW 2.0mph /  3.2km/h 8.0mph /  12.9km/h 62% 0.00in /  0mm
12:39 80.3 °F /  26.8 °C 65.6 °F /  18.7 °C 29.83in /  1010hPa WSW 1.0mph /  1.6km/h 8.0mph /  12.9km/h 61% 0.00in /  0mm
12:44 80.4 °F /  26.9 °C 66.7 °F /  19.3 °C 29.83in /  1010hPa SW 1.0mph /  1.6km/h 8.0mph /  12.9km/h 63% 0.00in /  0mm
12:49 80.7 °F /  27.1 °C 65.5 °F /  18.6 °C 29.83in /  1010hPa Calm   8.0mph /  12.9km/h 60% 0.00in /  0mm
12:54 81.0 °F /  27.2 °C 68.1 °F /  20.1 °C 29.83in /  1010hPa SSW 1.0mph /  1.6km/h 9.0mph /  14.5km/h 65% 0.00in /  0mm
12:59 81.2 °F /  27.3 °C 66.5 °F /  19.2 °C 29.82in /  1009.7hPa SW 2.0mph /  3.2km/h 9.0mph /  14.5km/h 61% 0.00in /  0mm
13:04 81.5 °F /  27.5 °C 66.3 °F /  19.1 °C 29.83in /  1010hPa SSW 1.0mph /  1.6km/h 6.0mph /  9.7km/h 60% 0.00in /  0mm
13:09 81.1 °F /  27.3 °C 65.4 °F /  18.6 °C 29.83in /  1010hPa SW 2.0mph /  3.2km/h 8.0mph /  12.9km/h 59% 0.00in /  0mm
13:14 81.1 °F /  27.3 °C 65.9 °F /  18.8 °C 29.83in /  1010hPa SW 1.0mph /  1.6km/h 9.0mph /  14.5km/h 60% 0.00in /  0mm
13:19 80.9 °F /  27.2 °C 64.3 °F /  17.9 °C 29.82in /  1009.7hPa Calm   9.0mph /  14.5km/h 57% 0.00in /  0mm
13:24 81.4 °F /  27.4 °C 66.7 °F /  19.3 °C 29.82in /  1009.7hPa Calm   5.0mph /  8km/h 61% 0.00in /  0mm
13:29 81.6 °F /  27.6 °C 66.9 °F /  19.4 °C 29.82in /  1009.7hPa Calm   4.0mph /  6.4km/h 61% 0.00in /  0mm
13:34 81.8 °F /  27.7 °C 66.1 °F /  18.9 °C 29.81in /  1009.4hPa SSW 2.0mph /  3.2km/h 8.0mph /  12.9km/h 59% 0.00in /  0mm
13:39 81.9 °F /  27.7 °C 67.1 °F /  19.5 °C 29.81in /  1009.4hPa SW 1.0mph /  1.6km/h 8.0mph /  12.9km/h 61% 0.00in /  0mm
13:44 82.3 °F /  27.9 °C 66.6 °F /  19.2 °C 29.81in /  1009.4hPa SW 2.0mph /  3.2km/h 10.0mph /  16.1km/h 59% 0.00in /  0mm
13:49 82.8 °F /  28.2 °C 68.0 °F /  20 °C 29.81in /  1009.4hPa Calm   10.0mph /  16.1km/h 61% 0.00in /  0mm
13:54 82.4 °F /  28 °C 64.6 °F /  18.1 °C 29.81in /  1009.4hPa Calm   3.0mph /  4.8km/h 55% 0.00in /  0mm
13:59 81.3 °F /  27.4 °C 64.6 °F /  18.1 °C 29.81in /  1009.4hPa SW 1.0mph /  1.6km/h 9.0mph /  14.5km/h 57% 0.00in /  0mm
14:04 80.8 °F /  27.1 °C 66.1 °F /  18.9 °C 29.81in /  1009.4hPa SW 2.0mph /  3.2km/h 9.0mph /  14.5km/h 61% 0.00in /  0mm
14:09 80.9 °F /  27.2 °C 65.7 °F /  18.7 °C 29.81in /  1009.4hPa Calm   6.0mph /  9.7km/h 60% 0.00in /  0mm
14:14 81.4 °F /  27.4 °C 65.7 °F /  18.7 °C 29.80in /  1009hPa SSW 1.0mph /  1.6km/h 5.0mph /  8km/h 59% 0.00in /  0mm
14:19 81.9 °F /  27.7 °C 65.7 °F /  18.7 °C 29.81in /  1009.4hPa SSW 1.0mph /  1.6km/h 8.0mph /  12.9km/h 58% 0.00in /  0mm
14:24 82.3 °F /  27.9 °C 66.6 °F /  19.2 °C 29.80in /  1009hPa Calm   8.0mph /  12.9km/h 59% 0.00in /  0mm
14:29 83.0 °F /  28.3 °C 68.7 °F /  20.4 °C 29.80in /  1009hPa SSW 1.0mph /  1.6km/h 7.0mph /  11.3km/h 62% 0.00in /  0mm
14:34 82.9 °F /  28.3 °C 68.1 °F /  20.1 °C 29.80in /  1009hPa SW 2.0mph /  3.2km/h 8.0mph /  12.9km/h 61% 0.00in /  0mm
14:39 82.9 °F /  28.3 °C 67.1 °F /  19.5 °C 29.80in /  1009hPa WSW 2.0mph /  3.2km/h 8.0mph /  12.9km/h 59% 0.00in /  0mm
14:44 82.9 °F /  28.3 °C 66.6 °F /  19.2 °C 29.80in /  1009hPa SW 2.0mph /  3.2km/h 8.0mph /  12.9km/h 58% 0.00in /  0mm
14:49 83.1 °F /  28.4 °C 67.8 °F /  19.9 °C 29.80in /  1009hPa Calm   8.0mph /  12.9km/h 60% 0.00in /  0mm
14:54 83.2 °F /  28.4 °C 66.9 °F /  19.4 °C 29.80in /  1009hPa SW 1.0mph /  1.6km/h 9.0mph /  14.5km/h 58% 0.00in /  0mm
14:59 82.7 °F /  28.2 °C 66.4 °F /  19.1 °C 29.80in /  1009hPa Calm   13.0mph /  20.9km/h 58% 0.00in /  0mm
15:09 82.5 °F /  28.1 °C 66.3 °F /  19.1 °C 29.80in /  1009hPa SW 3.0mph /  4.8km/h 9.0mph /  14.5km/h 58% 0.00in /  0mm
15:14 82.8 °F /  28.2 °C 67.0 °F /  19.4 °C 29.79in /  1008.7hPa South 1.0mph /  1.6km/h 9.0mph /  14.5km/h 59% 0.00in /  0mm
15:19 83.3 °F /  28.5 °C 68.0 °F /  20 °C 29.79in /  1008.7hPa SW 1.0mph /  1.6km/h 9.0mph /  14.5km/h 60% 0.00in /  0mm
15:24 83.8 °F /  28.8 °C 68.0 °F /  20 °C 29.79in /  1008.7hPa WSW 1.0mph /  1.6km/h 7.0mph /  11.3km/h 59% 0.00in /  0mm
15:29 84.1 °F /  28.9 °C 67.7 °F /  19.8 °C 29.79in /  1008.7hPa SW 1.0mph /  1.6km/h 6.0mph /  9.7km/h 58% 0.00in /  0mm
15:34 84.3 °F /  29.1 °C 67.9 °F /  19.9 °C 29.79in /  1008.7hPa Calm   9.0mph /  14.5km/h 58% 0.00in /  0mm
15:39 84.7 °F /  29.3 °C 68.3 °F /  20.2 °C 29.78in /  1008.4hPa Calm   9.0mph /  14.5km/h 58% 0.00in /  0mm
15:44 84.5 °F /  29.2 °C 67.6 °F /  19.8 °C 29.78in /  1008.4hPa South 2.0mph /  3.2km/h 8.0mph /  12.9km/h 57% 0.00in /  0mm
15:49 83.8 °F /  28.8 °C 68.0 °F /  20 °C 29.78in /  1008.4hPa Calm   8.0mph /  12.9km/h 59% 0.00in /  0mm
15:54 83.2 °F /  28.4 °C 66.9 °F /  19.4 °C 29.78in /  1008.4hPa SW 1.0mph /  1.6km/h 8.0mph /  12.9km/h 58% 0.00in /  0mm
15:59 82.4 °F /  28 °C 66.7 °F /  19.3 °C 29.78in /  1008.4hPa Calm   7.0mph /  11.3km/h 59% 0.00in /  0mm
16:04 82.2 °F /  27.9 °C 67.4 °F /  19.7 °C 29.78in /  1008.4hPa Calm   6.0mph /  9.7km/h 61% 0.00in /  0mm
16:09 82.2 °F /  27.9 °C 67.0 °F /  19.4 °C 29.78in /  1008.4hPa Calm   6.0mph /  9.7km/h 60% 0.00in /  0mm
16:19 82.1 °F /  27.8 °C 66.4 °F /  19.1 °C 29.78in /  1008.4hPa SSW 2.0mph /  3.2km/h 8.0mph /  12.9km/h 59% 0.00in /  0mm
16:24 82.3 °F /  27.9 °C 67.5 °F /  19.7 °C 29.78in /  1008.4hPa SW 1.0mph /  1.6km/h 8.0mph /  12.9km/h 61% 0.00in /  0mm
16:29 82.3 °F /  27.9 °C 68.0 °F /  20 °C 29.78in /  1008.4hPa SW 1.0mph /  1.6km/h 7.0mph /  11.3km/h 62% 0.00in /  0mm
16:34 82.1 °F /  27.8 °C 66.9 °F /  19.4 °C 29.78in /  1008.4hPa SW 2.0mph /  3.2km/h 8.0mph /  12.9km/h 60% 0.00in /  0mm
16:39 81.7 °F /  27.6 °C 66.5 °F /  19.2 °C 29.79in /  1008.7hPa SW 1.0mph /  1.6km/h 10.0mph /  16.1km/h 60% 0.00in /  0mm
16:49 81.4 °F /  27.4 °C 67.1 °F /  19.5 °C 29.79in /  1008.7hPa Calm   8.0mph /  12.9km/h 62% 0.00in /  0mm
16:54 81.5 °F /  27.5 °C 67.7 °F /  19.8 °C 29.78in /  1008.4hPa Calm   5.0mph /  8km/h 63% 0.00in /  0mm
16:59 82.0 °F /  27.8 °C 68.6 °F /  20.3 °C 29.78in /  1008.4hPa Calm   5.0mph /  8km/h 64% 0.00in /  0mm
17:04 82.5 °F /  28.1 °C 68.7 °F /  20.4 °C 29.78in /  1008.4hPa Calm   8.0mph /  12.9km/h 63% 0.00in /  0mm
17:09 82.9 °F /  28.3 °C 68.6 °F /  20.3 °C 29.78in /  1008.4hPa Calm   8.0mph /  12.9km/h 62% 0.00in /  0mm
17:14 83.2 °F /  28.4 °C 68.8 °F /  20.4 °C 29.78in /  1008.4hPa Calm   3.0mph /  4.8km/h 62% 0.00in /  0mm
17:19 83.4 °F /  28.6 °C 67.1 °F /  19.5 °C 29.77in /  1008hPa SSW 4.0mph /  6.4km/h 9.0mph /  14.5km/h 58% 0.00in /  0mm
17:24 83.2 °F /  28.4 °C 68.8 °F /  20.4 °C 29.77in /  1008hPa SW 1.0mph /  1.6km/h 9.0mph /  14.5km/h 62% 0.00in /  0mm
17:29 82.7 °F /  28.2 °C 68.4 °F /  20.2 °C 29.77in /  1008hPa SW 1.0mph /  1.6km/h 7.0mph /  11.3km/h 62% 0.00in /  0mm
17:34 81.8 °F /  27.7 °C 67.5 °F /  19.7 °C 29.77in /  1008hPa SW 2.0mph /  3.2km/h 9.0mph /  14.5km/h 62% 0.00in /  0mm
17:39 81.3 °F /  27.4 °C 67.1 °F /  19.5 °C 29.77in /  1008hPa SW 1.0mph /  1.6km/h 9.0mph /  14.5km/h 62% 0.00in /  0mm
17:44 81.2 °F /  27.3 °C 67.9 °F /  19.9 °C 29.77in /  1008hPa SW 1.0mph /  1.6km/h 9.0mph /  14.5km/h 64% 0.00in /  0mm
17:49 81.3 °F /  27.4 °C 68.0 °F /  20 °C 29.77in /  1008hPa West 1.0mph /  1.6km/h 7.0mph /  11.3km/h 64% 0.00in /  0mm
17:54 81.5 °F /  27.5 °C 67.7 °F /  19.8 °C 29.78in /  1008.4hPa Calm   5.0mph /  8km/h 63% 0.00in /  0mm
17:59 81.4 °F /  27.4 °C 68.1 °F /  20.1 °C 29.78in /  1008.4hPa Calm   6.0mph /  9.7km/h 64% 0.00in /  0mm
18:04 81.4 °F /  27.4 °C 69.0 °F /  20.6 °C 29.77in /  1008hPa SSW 1.0mph /  1.6km/h 7.0mph /  11.3km/h 66% 0.00in /  0mm
18:09 81.2 °F /  27.3 °C 68.3 °F /  20.2 °C 29.77in /  1008hPa SW 1.0mph /  1.6km/h 7.0mph /  11.3km/h 65% 0.00in /  0mm
18:14 81.2 °F /  27.3 °C 67.0 °F /  19.4 °C 29.78in /  1008.4hPa Calm   6.0mph /  9.7km/h 62% 0.00in /  0mm
18:19 81.2 °F /  27.3 °C 68.3 °F /  20.2 °C 29.78in /  1008.4hPa Calm   4.0mph /  6.4km/h 65% 0.00in /  0mm
18:24 81.0 °F /  27.2 °C 67.7 °F /  19.8 °C 29.78in /  1008.4hPa Calm   3.0mph /  4.8km/h 64% 0.00in /  0mm
18:29 81.4 °F /  27.4 °C 69.4 °F /  20.8 °C 29.78in /  1008.4hPa Calm   1.0mph /  1.6km/h 67% 0.00in /  0mm
18:34 81.7 °F /  27.6 °C 68.4 °F /  20.2 °C 29.77in /  1008hPa Calm   1.0mph /  1.6km/h 64% 0.00in /  0mm
18:39 81.5 °F /  27.5 °C 68.2 °F /  20.1 °C 29.78in /  1008.4hPa Calm   5.0mph /  8km/h 64% 0.00in /  0mm
18:44 81.3 °F /  27.4 °C 68.0 °F /  20 °C 29.78in /  1008.4hPa Calm   5.0mph /  8km/h 64% 0.00in /  0mm
18:49 81.1 °F /  27.3 °C 68.7 °F /  20.4 °C 29.78in /  1008.4hPa Calm   4.0mph /  6.4km/h 66% 0.00in /  0mm
18:54 80.9 °F /  27.2 °C 67.6 °F /  19.8 °C 29.78in /  1008.4hPa SSW 1.0mph /  1.6km/h 3.0mph /  4.8km/h 64% 0.00in /  0mm
18:59 80.7 °F /  27.1 °C 68.3 °F /  20.2 °C 29.78in /  1008.4hPa Calm   3.0mph /  4.8km/h 66% 0.00in /  0mm
19:04 80.7 °F /  27.1 °C 68.3 °F /  20.2 °C 29.77in /  1008hPa Calm   1.0mph /  1.6km/h 66% 0.00in /  0mm
19:09 80.7 °F /  27.1 °C 67.9 °F /  19.9 °C 29.77in /  1008hPa Calm   5.0mph /  8km/h 65% 0.00in /  0mm
19:14 80.6 °F /  27 °C 68.6 °F /  20.3 °C 29.77in /  1008hPa Calm   5.0mph /  8km/h 67% 0.00in /  0mm
19:19 80.4 °F /  26.9 °C 68.5 °F /  20.3 °C 29.77in /  1008hPa Calm   1.0mph /  1.6km/h 67% 0.00in /  0mm
19:24 80.1 °F /  26.7 °C 68.6 °F /  20.3 °C 29.76in /  1007.7hPa Calm   1.0mph /  1.6km/h 68% 0.00in /  0mm
19:29 79.9 °F /  26.6 °C 68.8 °F /  20.4 °C 29.76in /  1007.7hPa Calm   1.0mph /  1.6km/h 69% 0.00in /  0mm
19:34 79.6 °F /  26.4 °C 68.5 °F /  20.3 °C 29.76in /  1007.7hPa Calm   1.0mph /  1.6km/h 69% 0.00in /  0mm
19:39 79.2 °F /  26.2 °C 68.2 °F /  20.1 °C 29.76in /  1007.7hPa Calm   1.0mph /  1.6km/h 69% 0.00in /  0mm
19:44 79.0 °F /  26.1 °C 68.4 °F /  20.2 °C 29.76in /  1007.7hPa Calm   1.0mph /  1.6km/h 70% 0.00in /  0mm
19:49 78.7 °F /  25.9 °C 67.7 °F /  19.8 °C 29.76in /  1007.7hPa SW 1.0mph /  1.6km/h 4.0mph /  6.4km/h 69% 0.00in /  0mm
19:54 77.8 °F /  25.4 °C 67.2 °F /  19.6 °C 29.76in /  1007.7hPa Calm   4.0mph /  6.4km/h 70% 0.00in /  0mm
19:59 77.3 °F /  25.2 °C 67.2 °F /  19.6 °C 29.76in /  1007.7hPa Calm   2.0mph /  3.2km/h 71% 0.00in /  0mm
20:04 76.9 °F /  24.9 °C 67.2 °F /  19.6 °C 29.76in /  1007.7hPa Calm   1.0mph /  1.6km/h 72% 0.00in /  0mm
20:09 76.3 °F /  24.6 °C 67.0 °F /  19.4 °C 29.76in /  1007.7hPa Calm   5.0mph /  8km/h 73% 0.00in /  0mm
20:14 75.8 °F /  24.3 °C 66.5 °F /  19.2 °C 29.76in /  1007.7hPa Calm   5.0mph /  8km/h 73% 0.00in /  0mm
20:19 75.4 °F /  24.1 °C 66.9 °F /  19.4 °C 29.76in /  1007.7hPa Calm   2.0mph /  3.2km/h 75% 0.00in /  0mm
20:24 74.8 °F /  23.8 °C 66.4 °F /  19.1 °C 29.76in /  1007.7hPa Calm   1.0mph /  1.6km/h 75% 0.00in /  0mm
20:29 74.3 °F /  23.5 °C 66.3 °F /  19.1 °C 29.75in /  1007.3hPa Calm   1.0mph /  1.6km/h 76% 0.00in /  0mm
20:34 73.8 °F /  23.2 °C 66.1 °F /  18.9 °C 29.75in /  1007.3hPa Calm   1.0mph /  1.6km/h 77% 0.00in /  0mm
20:39 73.4 °F /  23 °C 65.8 °F /  18.8 °C 29.75in /  1007.3hPa Calm     77% 0.00in /  0mm
20:44 73.0 °F /  22.8 °C 65.7 °F /  18.7 °C 29.75in /  1007.3hPa Calm   1.0mph /  1.6km/h 78% 0.00in /  0mm
20:49 72.8 °F /  22.7 °C 65.5 °F /  18.6 °C 29.76in /  1007.7hPa Calm   1.0mph /  1.6km/h 78% 0.00in /  0mm
20:54 72.5 °F /  22.5 °C 65.6 °F /  18.7 °C 29.76in /  1007.7hPa Calm     79% 0.00in /  0mm
20:59 72.2 °F /  22.3 °C 65.7 °F /  18.7 °C 29.76in /  1007.7hPa Calm     80% 0.00in /  0mm
21:04 71.9 °F /  22.2 °C 65.4 °F /  18.6 °C 29.77in /  1008hPa Calm   1.0mph /  1.6km/h 80% 0.00in /  0mm
21:09 71.8 °F /  22.1 °C 65.7 °F /  18.7 °C 29.77in /  1008hPa Calm   1.0mph /  1.6km/h 81% 0.00in /  0mm
21:14 71.7 °F /  22.1 °C 65.6 °F /  18.7 °C 29.76in /  1007.7hPa Calm   1.0mph /  1.6km/h 81% 0.00in /  0mm
21:19 71.8 °F /  22.1 °C 65.7 °F /  18.7 °C 29.76in /  1007.7hPa Calm   4.0mph /  6.4km/h 81% 0.00in /  0mm
21:24 71.9 °F /  22.2 °C 65.8 °F /  18.8 °C 29.76in /  1007.7hPa Calm   4.0mph /  6.4km/h 81% 0.00in /  0mm
21:29 72.0 °F /  22.2 °C 65.5 °F /  18.6 °C 29.76in /  1007.7hPa Calm   2.0mph /  3.2km/h 80% 0.00in /  0mm
21:34 72.2 °F /  22.3 °C 65.7 °F /  18.7 °C 29.76in /  1007.7hPa Calm   3.0mph /  4.8km/h 80% 0.00in /  0mm
21:39 72.3 °F /  22.4 °C 65.8 °F /  18.8 °C 29.76in /  1007.7hPa Calm   3.0mph /  4.8km/h 80% 0.00in /  0mm
21:44 72.4 °F /  22.4 °C 65.5 °F /  18.6 °C 29.76in /  1007.7hPa Calm   3.0mph /  4.8km/h 79% 0.00in /  0mm
21:49 72.5 °F /  22.5 °C 65.6 °F /  18.7 °C 29.77in /  1008hPa Calm   3.0mph /  4.8km/h 79% 0.00in /  0mm
21:54 72.4 °F /  22.4 °C 65.9 °F /  18.8 °C 29.77in /  1008hPa Calm   2.0mph /  3.2km/h 80% 0.00in /  0mm
21:59 72.2 °F /  22.3 °C 65.7 °F /  18.7 °C 29.77in /  1008hPa Calm   2.0mph /  3.2km/h 80% 0.00in /  0mm
22:04 72.1 °F /  22.3 °C 65.6 °F /  18.7 °C 29.77in /  1008hPa Calm   1.0mph /  1.6km/h 80% 0.00in /  0mm
22:09 71.8 °F /  22.1 °C 65.3 °F /  18.5 °C 29.76in /  1007.7hPa Calm   1.0mph /  1.6km/h 80% 0.00in /  0mm
22:14 71.8 °F /  22.1 °C 65.3 °F /  18.5 °C 29.76in /  1007.7hPa Calm   2.0mph /  3.2km/h 80% 0.00in /  0mm
22:19 71.7 °F /  22.1 °C 65.6 °F /  18.7 °C 29.77in /  1008hPa Calm   2.0mph /  3.2km/h 81% 0.00in /  0mm
22:24 71.5 °F /  21.9 °C 65.4 °F /  18.6 °C 29.77in /  1008hPa Calm   1.0mph /  1.6km/h 81% 0.00in /  0mm
22:29 71.2 °F /  21.8 °C 65.4 °F /  18.6 °C 29.77in /  1008hPa Calm     82% 0.00in /  0mm
22:34 70.9 °F /  21.6 °C 65.1 °F /  18.4 °C 29.77in /  1008hPa Calm   1.0mph /  1.6km/h 82% 0.00in /  0mm
22:39 71.0 °F /  21.7 °C 65.2 °F /  18.4 °C 29.76in /  1007.7hPa Calm   3.0mph /  4.8km/h 82% 0.00in /  0mm
22:44 71.0 °F /  21.7 °C 65.2 °F /  18.4 °C 29.76in /  1007.7hPa Calm   3.0mph /  4.8km/h 82% 0.00in /  0mm
22:49 71.0 °F /  21.7 °C 65.2 °F /  18.4 °C 29.76in /  1007.7hPa Calm   2.0mph /  3.2km/h 82% 0.00in /  0mm
22:54 71.1 °F /  21.7 °C 65.0 °F /  18.3 °C 29.76in /  1007.7hPa Calm   2.0mph /  3.2km/h 81% 0.00in /  0mm
22:59 71.3 °F /  21.8 °C 65.2 °F /  18.4 °C 29.76in /  1007.7hPa Calm   2.0mph /  3.2km/h 81% 0.00in /  0mm
23:04 71.5 °F /  21.9 °C 65.0 °F /  18.3 °C 29.76in /  1007.7hPa Calm   4.0mph /  6.4km/h 80% 0.00in /  0mm
23:09 71.7 °F /  22.1 °C 65.2 °F /  18.4 °C 29.76in /  1007.7hPa Calm   4.0mph /  6.4km/h 80% 0.00in /  0mm
23:14 71.9 °F /  22.2 °C 65.0 °F /  18.3 °C 29.76in /  1007.7hPa Calm   3.0mph /  4.8km/h 79% 0.00in /  0mm
23:19 72.3 °F /  22.4 °C 65.4 °F /  18.6 °C 29.76in /  1007.7hPa Calm   4.0mph /  6.4km/h 79% 0.00in /  0mm
23:24 72.6 °F /  22.6 °C 65.4 °F /  18.6 °C 29.76in /  1007.7hPa Calm   4.0mph /  6.4km/h 78% 0.00in /  0mm
23:29 72.7 °F /  22.6 °C 65.5 °F /  18.6 °C 29.76in /  1007.7hPa Calm   1.0mph /  1.6km/h 78% 0.00in /  0mm
23:34 72.8 °F /  22.7 °C 65.5 °F /  18.6 °C 29.76in /  1007.7hPa Calm   1.0mph /  1.6km/h 78% 0.00in /  0mm
23:39 72.8 °F /  22.7 °C 65.5 °F /  18.6 °C 29.76in /  1007.7hPa Calm   4.0mph /  6.4km/h 78% 0.00in /  0mm
23:44 72.9 °F /  22.7 °C 65.3 °F /  18.5 °C 29.76in /  1007.7hPa Calm   4.0mph /  6.4km/h 77% 0.00in /  0mm
23:49 72.8 °F /  22.7 °C 65.2 °F /  18.4 °C 29.76in /  1007.7hPa Calm   3.0mph /  4.8km/h 77% 0.00in /  0mm
23:54 72.8 °F /  22.7 °C 65.5 °F /  18.6 °C 29.77in /  1008hPa Calm   1.0mph /  1.6km/h 78% 0.00in /  0mm
23:59 72.7 °F /  22.6 °C 65.5 °F /  18.6 °C 29.77in /  1008hPa Calm   1.0mph /  1.6km/h 78% 0.00in /  0mm
Westford Weather
Compliments of Weather Underground

 
 
Current Radar Loop:

Copyright © WestfordWeather.net 2007-2014. All rights reserved.